WetterOnline ( https://www.wetteronline.de )

Wetter aktuell Kempten/Allgäu

Aktuelles Wetter: Kempten (705m)

6-stündlich | Neueste Meldungen
Ortszeit Temperatur Wetter
Di, 18.06. 20:00 25.8° C leicht bewölkt
Di, 18.06. 14:00 28.5° C leicht bewölkt
Di, 18.06. 8:00 16.3° C leicht bewölkt
Di, 18.06. 2:00 11.6° C wolkig
Mo, 17.06. 20:00 19.5° C wolkig
Mo, 17.06. 14:00 23.6° C wolkig
Mo, 17.06. 8:00 15.6° C bedeckt
Mo, 17.06. 2:00 12.8° C wolkig
Ortszeit Temperatur Wetter
Di, 18.06. 22:30 18.3° C bedeckt
Di, 18.06. 22:20 18.3° C bedeckt
Di, 18.06. 22:10 18.7° C bedeckt
Di, 18.06. 22:00 19.5° C bedeckt
Di, 18.06. 21:50 19.5° C bedeckt
Di, 18.06. 21:40 19.5° C bedeckt
Di, 18.06. 21:30 20.2° C bedeckt
Di, 18.06. 21:00 21.6° C bedeckt
Di, 18.06. 20:30 22.5° C bewölkt
Di, 18.06. 20:00 25.8° C leicht bewölkt
Di, 18.06. 19:30 27.7° C fast wolkenlos
Ortszeit Relative Feuchte Sichtweite
Di, 18.06. 20:00 44% 65 km
Di, 18.06. 14:00 26% 45 km
Di, 18.06. 8:00 79% 50 km
Di, 18.06. 2:00 98% 19 km
Mo, 17.06. 20:00 69% 60 km
Mo, 17.06. 14:00 50% 55 km
Mo, 17.06. 8:00 78% 45 km
Mo, 17.06. 2:00 94% 30 km
Ortszeit Relative Feuchte Sichtweite
Di, 18.06. 22:30 79% 45 km
Di, 18.06. 22:20 79% -
Di, 18.06. 22:10 76% -
Di, 18.06. 22:00 71% 50 km
Di, 18.06. 21:50 71% -
Di, 18.06. 21:40 73% -
Di, 18.06. 21:30 71% 50 km
Di, 18.06. 21:00 62% 55 km
Di, 18.06. 20:30 59% 60 km
Di, 18.06. 20:00 44% 65 km
Di, 18.06. 19:30 33% 60 km
Ortszeit Niederschlagsmenge Niederschlagsart
Di, 18.06. 20:00 0.0 l/m2 in 12 Std. -
Di, 18.06. 14:00 0.0 l/m2 in 6 Std. -
Di, 18.06. 8:00 4 l/m2 in 12 Std. -
Di, 18.06. 2:00 4 l/m2 in 6 Std. Regen
Mo, 17.06. 20:00 0.1 l/m2 in 12 Std. Regen
Mo, 17.06. 14:00 0.0 l/m2 in 6 Std. -
Mo, 17.06. 8:00 0.1 l/m2 in 12 Std. -
Mo, 17.06. 2:00 0.1 l/m2 in 6 Std. Regen
Ortszeit Niederschlagsmenge Niederschlagsart
Di, 18.06. 22:30 0.0 l/m2 in 30 Min -
Di, 18.06. 22:20 keine Meldung -
Di, 18.06. 22:10 keine Meldung -
Di, 18.06. 22:00 0.0 l/m2 in 1 Std. -
Di, 18.06. 21:50 keine Meldung -
Di, 18.06. 21:40 keine Meldung -
Di, 18.06. 21:30 0.0 l/m2 in 30 Min -
Di, 18.06. 21:00 0.0 l/m2 in 1 Std. -
Di, 18.06. 20:30 0.0 l/m2 in 30 Min -
Di, 18.06. 20:00 0.0 l/m2 in 1 Std. -
Di, 18.06. 19:30 0.0 l/m2 in 30 Min -
Ortszeit Stärke Spitze Richtung
km/h Bft. km/h Grad Sektor
Di, 18.06. 20:00 6 1 22 70° O
Di, 18.06. 14:00 9 2 19 270° W
Di, 18.06. 8:00 7 2 14 120° SO
Di, 18.06. 2:00 11 2 29 100° O
Mo, 17.06. 20:00 9 2 31 340° N
Mo, 17.06. 14:00 7 2 19 340° N
Mo, 17.06. 8:00 7 2 14 140° SO
Mo, 17.06. 2:00 7 2 14 130° SO
Ortszeit Stärke Spitze Richtung
km/h Bft. km/h Grad Sektor
Di, 18.06. 22:30 7 2 9 100° O
Di, 18.06. 22:20 7 2 - 100° O
Di, 18.06. 22:10 6 1 - 100° O
Di, 18.06. 22:00 7 2 13 110° O
Di, 18.06. 21:50 7 2 - 110° O
Di, 18.06. 21:40 6 1 - 90° O
Di, 18.06. 21:30 4 1 7 110° O
Di, 18.06. 21:00 6 1 9 80° O
Di, 18.06. 20:30 4 1 7 60° NO
Di, 18.06. 20:00 6 1 11 70° O
Di, 18.06. 19:30 7 2 11 130° SO
Ortszeit Untergrenze Bedeckung Gattung
total tief tief mittel hoch
Di, 18.06. 20:00 9000 m 6/8 0/8 - - -
Di, 18.06. 14:00 8700 m 3/8 0/8 - - -
Di, 18.06. 8:00 10500 m 6/8 0/8 - - -
Di, 18.06. 2:00 8100 m 8/8 0/8 - - -
Mo, 17.06. 20:00 1290 m 8/8 1/8 - - -
Mo, 17.06. 14:00 1500 m 6/8 2/8 - - -
Mo, 17.06. 8:00 3300 m 8/8 8/8 - - -
Mo, 17.06. 2:00 2400 m 7/8 2/8 - - -
Ortszeit Bedeckungsgrad in Achtel und Wolkenuntergrenze
Di, 18.06. 22:30 8(6300m)
Di, 18.06. 22:20 8(6300m)
Di, 18.06. 22:10 8
Di, 18.06. 22:00 5(5700m) 8(6300m) 8(9000m)
Di, 18.06. 21:50 5(5700m) 8(6300m) 8(9000m)
Di, 18.06. 21:40 8
Di, 18.06. 21:30 1(5100m) 8(6000m)
Di, 18.06. 21:00 1(5100m) 8(6000m)
Di, 18.06. 20:30 6(6000m) 7(8700m) 7(9000m)
Di, 18.06. 20:00 4(9000m) 6(9000m)
Di, 18.06. 19:30 1(9000m)
Ortszeit Luftdruck NN (hPa) Tendenz (hPa in 3 Std.)
Di, 18.06. 20:00 1010 - 0,5
Di, 18.06. 14:00 1011 - 0,9
Di, 18.06. 8:00 1016 - 0,1
Di, 18.06. 2:00 1018 - 0,1
Mo, 17.06. 20:00 1015 + 0,9
Mo, 17.06. 14:00 1012 - 0,4
Mo, 17.06. 8:00 1015 + 0,5
Mo, 17.06. 2:00 1014 + 0,3
Ortszeit Luftdruck NN (hPa) Tendenz (hPa in 3 Std.)
Di, 18.06. 22:30 1012 + 0,5
Di, 18.06. 22:20 1012 keine Meldung
Di, 18.06. 22:10 1012 keine Meldung
Di, 18.06. 22:00 1012 + 0,4
Di, 18.06. 21:50 1012 keine Meldung
Di, 18.06. 21:40 1012 keine Meldung
Di, 18.06. 21:30 1012 0,0
Di, 18.06. 21:00 1011 - 0,4
Di, 18.06. 20:30 1011 - 0,4
Di, 18.06. 20:00 1010 - 0,5
Di, 18.06. 19:30 1009 - 0,7
Ortszeit Schneehöhe (cm)
Di, 18.06. 20:00 0
Di, 18.06. 14:00 0
Di, 18.06. 8:00 0
Di, 18.06. 2:00 0
Mo, 17.06. 20:00 0
Mo, 17.06. 14:00 0
Mo, 17.06. 8:00 0
Mo, 17.06. 2:00 0
Ortszeit Schneehöhe (cm)
Di, 18.06. 22:30 0
Di, 18.06. 22:20 0
Di, 18.06. 22:10 -
Di, 18.06. 22:00 0
Di, 18.06. 21:50 0
Di, 18.06. 21:40 -
Di, 18.06. 21:30 0
Di, 18.06. 21:00 0
Di, 18.06. 20:30 0
Di, 18.06. 20:00 0
Di, 18.06. 19:30 0
Link zu dieser Seite / Seite empfehlen

Das Wetter in ...